sensor_id;sensor_type;location;lat;lon;timestamp;pressure;altitude;pressure_sealevel;temperature;humidity
70304;BME280;57712;48.752;11.348;2023-08-07T00:01:26;97126.56;;;11.43;100.00
70304;BME280;57712;48.752;11.348;2023-08-07T00:03:53;97139.06;;;11.44;100.00
70304;BME280;57712;48.752;11.348;2023-08-07T00:06:19;97136.16;;;11.35;100.00
70304;BME280;57712;48.752;11.348;2023-08-07T00:08:46;97143.28;;;11.33;100.00
70304;BME280;57712;48.752;11.348;2023-08-07T00:11:13;97142.97;;;11.31;100.00
70304;BME280;57712;48.752;11.348;2023-08-07T00:13:40;97152.13;;;11.24;100.00
70304;BME280;57712;48.752;11.348;2023-08-07T00:16:06;97156.94;;;11.20;100.00
70304;BME280;57712;48.752;11.348;2023-08-07T00:18:33;97152.66;;;11.19;100.00
70304;BME280;57712;48.752;11.348;2023-08-07T00:21:00;97146.16;;;11.13;100.00
70304;BME280;57712;48.752;11.348;2023-08-07T00:23:26;97158.00;;;11.10;100.00
70304;BME280;57712;48.752;11.348;2023-08-07T00:25:53;97149.16;;;11.18;100.00
70304;BME280;57712;48.752;11.348;2023-08-07T00:28:20;97157.66;;;11.08;100.00
70304;BME280;57712;48.752;11.348;2023-08-07T00:30:46;97151.84;;;11.06;100.00
70304;BME280;57712;48.752;11.348;2023-08-07T00:33:13;97153.97;;;10.98;100.00
70304;BME280;57712;48.752;11.348;2023-08-07T00:35:40;97146.44;;;11.02;100.00
70304;BME280;57712;48.752;11.348;2023-08-07T00:38:06;97153.03;;;11.05;100.00
70304;BME280;57712;48.752;11.348;2023-08-07T00:40:37;97149.22;;;11.15;100.00
70304;BME280;57712;48.752;11.348;2023-08-07T00:43:05;97150.63;;;11.07;100.00
70304;BME280;57712;48.752;11.348;2023-08-07T00:45:38;97157.81;;;11.01;100.00
70304;BME280;57712;48.752;11.348;2023-08-07T00:48:08;97149.50;;;11.04;100.00
70304;BME280;57712;48.752;11.348;2023-08-07T00:50:36;97148.06;;;10.99;100.00
70304;BME280;57712;48.752;11.348;2023-08-07T00:53:13;97134.53;;;11.09;100.00
70304;BME280;57712;48.752;11.348;2023-08-07T00:55:40;97146.00;;;11.04;100.00
70304;BME280;57712;48.752;11.348;2023-08-07T00:58:08;97157.50;;;10.98;100.00
70304;BME280;57712;48.752;11.348;2023-08-07T01:00:34;97144.81;;;11.05;100.00
70304;BME280;57712;48.752;11.348;2023-08-07T01:03:01;97129.91;;;11.06;100.00
70304;BME280;57712;48.752;11.348;2023-08-07T01:05:28;97130.31;;;11.04;100.00
70304;BME280;57712;48.752;11.348;2023-08-07T01:07:56;97135.91;;;11.01;100.00
70304;BME280;57712;48.752;11.348;2023-08-07T01:10:48;97128.00;;;11.03;100.00
70304;BME280;57712;48.752;11.348;2023-08-07T01:15:53;97131.63;;;10.99;100.00
70304;BME280;57712;48.752;11.348;2023-08-07T01:18:22;97127.00;;;10.96;100.00
70304;BME280;57712;48.752;11.348;2023-08-07T01:20:48;97131.63;;;10.99;100.00
70304;BME280;57712;48.752;11.348;2023-08-07T01:23:15;97130.84;;;10.99;100.00
70304;BME280;57712;48.752;11.348;2023-08-07T01:25:42;97126.25;;;10.96;100.00
70304;BME280;57712;48.752;11.348;2023-08-07T01:28:31;97132.16;;;10.94;100.00
70304;BME280;57712;48.752;11.348;2023-08-07T01:31:03;97139.50;;;10.97;100.00
70304;BME280;57712;48.752;11.348;2023-08-07T01:33:43;97144.28;;;10.93;100.00
70304;BME280;57712;48.752;11.348;2023-08-07T01:36:14;97149.00;;;10.93;100.00
70304;BME280;57712;48.752;11.348;2023-08-07T01:38:44;97136.44;;;10.95;100.00
70304;BME280;57712;48.752;11.348;2023-08-07T01:41:12;97132.50;;;10.96;100.00
70304;BME280;57712;48.752;11.348;2023-08-07T01:43:39;97137.63;;;10.94;100.00
70304;BME280;57712;48.752;11.348;2023-08-07T01:46:05;97144.22;;;10.97;100.00
70304;BME280;57712;48.752;11.348;2023-08-07T01:48:33;97143.63;;;10.89;100.00
70304;BME280;57712;48.752;11.348;2023-08-07T01:50:59;97138.91;;;10.90;100.00
70304;BME280;57712;48.752;11.348;2023-08-07T01:53:26;97143.63;;;10.89;100.00
70304;BME280;57712;48.752;11.348;2023-08-07T01:55:53;97154.91;;;10.91;100.00
70304;BME280;57712;48.752;11.348;2023-08-07T01:58:20;97158.53;;;10.88;100.00
70304;BME280;57712;48.752;11.348;2023-08-07T02:00:46;97156.13;;;10.90;100.00
70304;BME280;57712;48.752;11.348;2023-08-07T02:03:13;97177.38;;;10.86;100.00
70304;BME280;57712;48.752;11.348;2023-08-07T02:05:40;97166.91;;;10.97;100.00
70304;BME280;57712;48.752;11.348;2023-08-07T02:08:07;97179.41;;;10.98;100.00
70304;BME280;57712;48.752;11.348;2023-08-07T02:10:33;97170.75;;;11.00;100.00
70304;BME280;57712;48.752;11.348;2023-08-07T02:13:00;97175.63;;;10.92;100.00
70304;BME280;57712;48.752;11.348;2023-08-07T02:15:30;97184.91;;;10.98;100.00
70304;BME280;57712;48.752;11.348;2023-08-07T02:17:56;97161.50;;;10.94;100.00
70304;BME280;57712;48.752;11.348;2023-08-07T02:20:23;97189.72;;;10.94;100.00
70304;BME280;57712;48.752;11.348;2023-08-07T02:22:50;97178.81;;;10.91;100.00
70304;BME280;57712;48.752;11.348;2023-08-07T02:25:17;97177.09;;;10.97;100.00
70304;BME280;57712;48.752;11.348;2023-08-07T02:27:43;97183.38;;;10.97;100.00
70304;BME280;57712;48.752;11.348;2023-08-07T02:30:10;97186.00;;;11.01;100.00
70304;BME280;57712;48.752;11.348;2023-08-07T02:32:37;97180.34;;;11.08;100.00
70304;BME280;57712;48.752;11.348;2023-08-07T02:35:04;97199.97;;;10.90;100.00
70304;BME280;57712;48.752;11.348;2023-08-07T02:37:31;97184.28;;;10.91;100.00
70304;BME280;57712;48.752;11.348;2023-08-07T02:39:57;97189.50;;;11.02;100.00
70304;BME280;57712;48.752;11.348;2023-08-07T02:42:24;97185.66;;;10.99;100.00
70304;BME280;57712;48.752;11.348;2023-08-07T02:44:51;97197.31;;;11.03;100.00
70304;BME280;57712;48.752;11.348;2023-08-07T02:47:17;97190.88;;;10.93;100.00
70304;BME280;57712;48.752;11.348;2023-08-07T02:49:44;97197.06;;;10.97;100.00
70304;BME280;57712;48.752;11.348;2023-08-07T02:52:11;97208.09;;;10.94;100.00
70304;BME280;57712;48.752;11.348;2023-08-07T02:54:37;97204.25;;;10.91;100.00
70304;BME280;57712;48.752;11.348;2023-08-07T02:57:04;97200.66;;;10.94;100.00
70304;BME280;57712;48.752;11.348;2023-08-07T02:59:31;97208.19;;;10.90;100.00
70304;BME280;57712;48.752;11.348;2023-08-07T03:01:57;97208.72;;;10.85;100.00
70304;BME280;57712;48.752;11.348;2023-08-07T03:04:24;97220.69;;;10.91;100.00
70304;BME280;57712;48.752;11.348;2023-08-07T03:06:51;97218.28;;;10.93;100.00
70304;BME280;57712;48.752;11.348;2023-08-07T03:09:18;97220.34;;;10.89;100.00
70304;BME280;57712;48.752;11.348;2023-08-07T03:11:45;97221.28;;;10.83;100.00
70304;BME280;57712;48.752;11.348;2023-08-07T03:14:11;97229.25;;;10.77;100.00
70304;BME280;57712;48.752;11.348;2023-08-07T03:16:38;97225.94;;;10.86;100.00
70304;BME280;57712;48.752;11.348;2023-08-07T03:19:05;97224.78;;;10.83;100.00
70304;BME280;57712;48.752;11.348;2023-08-07T03:21:31;97224.13;;;10.95;100.00
70304;BME280;57712;48.752;11.348;2023-08-07T03:23:58;97235.94;;;10.92;100.00
70304;BME280;57712;48.752;11.348;2023-08-07T03:26:25;97227.66;;;10.96;100.00
70304;BME280;57712;48.752;11.348;2023-08-07T03:28:51;97232.00;;;10.93;100.00
70304;BME280;57712;48.752;11.348;2023-08-07T03:31:18;97228.13;;;10.91;100.00
70304;BME280;57712;48.752;11.348;2023-08-07T03:33:45;97242.88;;;10.97;100.00
70304;BME280;57712;48.752;11.348;2023-08-07T03:36:11;97241.50;;;10.89;100.00
70304;BME280;57712;48.752;11.348;2023-08-07T03:38:38;97234.72;;;10.77;100.00
70304;BME280;57712;48.752;11.348;2023-08-07T03:41:05;97247.22;;;10.78;100.00
70304;BME280;57712;48.752;11.348;2023-08-07T03:43:31;97246.56;;;10.74;100.00
70304;BME280;57712;48.752;11.348;2023-08-07T03:45:58;97249.78;;;10.69;100.00
70304;BME280;57712;48.752;11.348;2023-08-07T03:48:29;97248.78;;;10.79;100.00
70304;BME280;57712;48.752;11.348;2023-08-07T03:51:06;97255.44;;;10.78;100.00
70304;BME280;57712;48.752;11.348;2023-08-07T03:53:35;97251.41;;;10.66;100.00
70304;BME280;57712;48.752;11.348;2023-08-07T03:56:01;97248.75;;;10.63;100.00
70304;BME280;57712;48.752;11.348;2023-08-07T03:58:28;97254.56;;;10.65;100.00
70304;BME280;57712;48.752;11.348;2023-08-07T04:00:55;97263.00;;;10.74;100.00
70304;BME280;57712;48.752;11.348;2023-08-07T04:03:22;97265.53;;;10.65;100.00
70304;BME280;57712;48.752;11.348;2023-08-07T04:05:53;97260.59;;;10.76;100.00
70304;BME280;57712;48.752;11.348;2023-08-07T04:08:21;97274.00;;;10.70;100.00
70304;BME280;57712;48.752;11.348;2023-08-07T04:11:02;97270.78;;;10.76;100.00
70304;BME280;57712;48.752;11.348;2023-08-07T04:13:29;97279.03;;;10.56;100.00
70304;BME280;57712;48.752;11.348;2023-08-07T04:15:56;97282.13;;;10.58;100.00
70304;BME280;57712;48.752;11.348;2023-08-07T04:18:23;97275.50;;;10.75;100.00
70304;BME280;57712;48.752;11.348;2023-08-07T04:20:55;97284.19;;;10.70;100.00
70304;BME280;57712;48.752;11.348;2023-08-07T04:23:23;97284.91;;;10.74;100.00
70304;BME280;57712;48.752;11.348;2023-08-07T04:25:51;97281.97;;;10.65;100.00
70304;BME280;57712;48.752;11.348;2023-08-07T04:28:18;97288.50;;;10.51;100.00
70304;BME280;57712;48.752;11.348;2023-08-07T04:30:49;97278.53;;;10.61;100.00
70304;BME280;57712;48.752;11.348;2023-08-07T04:33:16;97297.00;;;10.57;100.00
70304;BME280;57712;48.752;11.348;2023-08-07T04:35:43;97297.69;;;10.61;100.00
70304;BME280;57712;48.752;11.348;2023-08-07T04:38:10;97300.44;;;10.61;100.00
70304;BME280;57712;48.752;11.348;2023-08-07T04:40:36;97298.06;;;10.63;100.00
70304;BME280;57712;48.752;11.348;2023-08-07T04:43:03;97295.38;;;10.59;100.00
70304;BME280;57712;48.752;11.348;2023-08-07T04:45:29;97309.38;;;10.65;100.00
70304;BME280;57712;48.752;11.348;2023-08-07T04:47:56;97297.53;;;10.68;100.00
70304;BME280;57712;48.752;11.348;2023-08-07T04:50:23;97304.22;;;10.67;100.00
70304;BME280;57712;48.752;11.348;2023-08-07T04:52:49;97301.50;;;10.67;100.00
70304;BME280;57712;48.752;11.348;2023-08-07T04:55:16;97300.72;;;10.66;100.00
70304;BME280;57712;48.752;11.348;2023-08-07T04:57:43;97302.59;;;10.69;100.00
70304;BME280;57712;48.752;11.348;2023-08-07T05:00:10;97301.50;;;10.83;100.00
70304;BME280;57712;48.752;11.348;2023-08-07T05:02:37;97310.91;;;10.66;100.00
70304;BME280;57712;48.752;11.348;2023-08-07T05:05:04;97311.03;;;10.59;100.00
70304;BME280;57712;48.752;11.348;2023-08-07T05:07:33;97309.84;;;10.60;100.00
70304;BME280;57712;48.752;11.348;2023-08-07T05:10:01;97314.31;;;10.70;100.00
70304;BME280;57712;48.752;11.348;2023-08-07T05:12:28;97323.88;;;10.62;100.00
70304;BME280;57712;48.752;11.348;2023-08-07T05:14:55;97313.31;;;10.64;100.00
70304;BME280;57712;48.752;11.348;2023-08-07T05:17:22;97318.06;;;10.60;100.00
70304;BME280;57712;48.752;11.348;2023-08-07T05:19:49;97316.53;;;10.59;100.00
70304;BME280;57712;48.752;11.348;2023-08-07T05:22:16;97328.00;;;10.54;100.00
70304;BME280;57712;48.752;11.348;2023-08-07T05:24:43;97325.94;;;10.58;100.00
70304;BME280;57712;48.752;11.348;2023-08-07T05:27:11;97324.41;;;10.57;100.00
70304;BME280;57712;48.752;11.348;2023-08-07T05:29:38;97340.13;;;10.53;100.00
70304;BME280;57712;48.752;11.348;2023-08-07T05:32:14;97327.91;;;10.57;100.00
70304;BME280;57712;48.752;11.348;2023-08-07T05:34:41;97331.41;;;10.58;100.00
70304;BME280;57712;48.752;11.348;2023-08-07T05:37:08;97334.50;;;10.60;100.00
70304;BME280;57712;48.752;11.348;2023-08-07T05:39:35;97331.41;;;10.58;100.00
70304;BME280;57712;48.752;11.348;2023-08-07T05:42:02;97332.31;;;10.51;100.00
70304;BME280;57712;48.752;11.348;2023-08-07T05:44:29;97335.13;;;10.67;100.00
70304;BME280;57712;48.752;11.348;2023-08-07T05:46:56;97330.44;;;10.48;100.00
70304;BME280;57712;48.752;11.348;2023-08-07T05:49:22;97340.91;;;10.53;100.00
70304;BME280;57712;48.752;11.348;2023-08-07T05:51:52;97341.31;;;10.52;100.00
70304;BME280;57712;48.752;11.348;2023-08-07T05:54:20;97346.31;;;10.57;100.00
70304;BME280;57712;48.752;11.348;2023-08-07T05:56:47;97347.72;;;10.65;100.00
70304;BME280;57712;48.752;11.348;2023-08-07T05:59:14;97345.44;;;10.60;100.00
70304;BME280;57712;48.752;11.348;2023-08-07T06:01:41;97353.19;;;10.65;100.00
70304;BME280;57712;48.752;11.348;2023-08-07T06:04:08;97357.47;;;10.66;100.00
70304;BME280;57712;48.752;11.348;2023-08-07T06:06:35;97355.28;;;10.77;100.00
70304;BME280;57712;48.752;11.348;2023-08-07T06:09:02;97353.41;;;10.74;100.00
70304;BME280;57712;48.752;11.348;2023-08-07T06:11:30;97364.69;;;10.76;100.00
70304;BME280;57712;48.752;11.348;2023-08-07T06:13:58;97383.03;;;10.79;100.00
70304;BME280;57712;48.752;11.348;2023-08-07T06:16:25;97358.38;;;10.79;100.00
70304;BME280;57712;48.752;11.348;2023-08-07T06:18:51;97366.31;;;10.74;100.00
70304;BME280;57712;48.752;11.348;2023-08-07T06:21:19;97360.63;;;10.84;100.00
70304;BME280;57712;48.752;11.348;2023-08-07T06:23:47;97366.66;;;10.95;100.00
70304;BME280;57712;48.752;11.348;2023-08-07T06:26:13;97378.88;;;10.91;100.00
70304;BME280;57712;48.752;11.348;2023-08-07T06:28:41;97368.97;;;10.97;100.00
70304;BME280;57712;48.752;11.348;2023-08-07T06:31:10;97370.75;;;11.04;100.00
70304;BME280;57712;48.752;11.348;2023-08-07T06:33:37;97374.25;;;11.04;100.00
70304;BME280;57712;48.752;11.348;2023-08-07T06:36:04;97379.06;;;11.00;100.00
70304;BME280;57712;48.752;11.348;2023-08-07T06:38:31;97375.22;;;10.97;100.00
70304;BME280;57712;48.752;11.348;2023-08-07T06:40:58;97377.53;;;10.99;100.00
70304;BME280;57712;48.752;11.348;2023-08-07T06:43:25;97387.56;;;11.06;100.00
70304;BME280;57712;48.752;11.348;2023-08-07T06:45:53;97382.44;;;11.08;100.00
70304;BME280;57712;48.752;11.348;2023-08-07T06:48:20;97381.09;;;11.16;100.00
70304;BME280;57712;48.752;11.348;2023-08-07T06:50:47;97389.13;;;11.07;100.00
70304;BME280;57712;48.752;11.348;2023-08-07T06:53:14;97392.34;;;11.02;100.00
70304;BME280;57712;48.752;11.348;2023-08-07T06:55:42;97394.81;;;10.96;100.00
70304;BME280;57712;48.752;11.348;2023-08-07T06:58:09;97398.53;;;11.06;100.00
70304;BME280;57712;48.752;11.348;2023-08-07T07:00:36;97402.53;;;11.01;100.00
70304;BME280;57712;48.752;11.348;2023-08-07T07:03:04;97394.66;;;11.03;100.00
70304;BME280;57712;48.752;11.348;2023-08-07T07:05:31;97407.16;;;11.04;100.00
70304;BME280;57712;48.752;11.348;2023-08-07T07:07:59;97396.91;;;11.08;100.00
70304;BME280;57712;48.752;11.348;2023-08-07T07:10:26;97395.28;;;11.11;100.00
70304;BME280;57712;48.752;11.348;2023-08-07T07:12:53;97400.75;;;11.11;100.00
70304;BME280;57712;48.752;11.348;2023-08-07T07:15:19;97399.06;;;11.17;100.00
70304;BME280;57712;48.752;11.348;2023-08-07T07:17:46;97413.66;;;11.30;100.00
70304;BME280;57712;48.752;11.348;2023-08-07T07:20:13;97411.13;;;11.39;100.00
70304;BME280;57712;48.752;11.348;2023-08-07T07:22:40;97412.56;;;11.27;100.00
70304;BME280;57712;48.752;11.348;2023-08-07T07:25:07;97419.84;;;11.34;100.00
70304;BME280;57712;48.752;11.348;2023-08-07T07:27:34;97419.34;;;11.39;100.00
70304;BME280;57712;48.752;11.348;2023-08-07T07:30:00;97410.88;;;11.50;100.00
70304;BME280;57712;48.752;11.348;2023-08-07T07:32:27;97423.03;;;11.49;100.00
70304;BME280;57712;48.752;11.348;2023-08-07T07:34:54;97418.06;;;11.44;100.00
70304;BME280;57712;48.752;11.348;2023-08-07T07:37:21;97428.19;;;11.47;100.00
70304;BME280;57712;48.752;11.348;2023-08-07T07:39:47;97424.78;;;11.59;100.00
70304;BME280;57712;48.752;11.348;2023-08-07T07:42:14;97431.25;;;11.85;100.00
70304;BME280;57712;48.752;11.348;2023-08-07T07:44:41;97420.56;;;11.71;100.00
70304;BME280;57712;48.752;11.348;2023-08-07T07:47:08;97430.47;;;12.01;100.00
70304;BME280;57712;48.752;11.348;2023-08-07T07:49:39;97428.22;;;11.96;100.00
70304;BME280;57712;48.752;11.348;2023-08-07T07:52:06;97427.13;;;11.93;100.00
70304;BME280;57712;48.752;11.348;2023-08-07T07:54:34;97425.81;;;12.14;100.00
70304;BME280;57712;48.752;11.348;2023-08-07T07:57:01;97433.28;;;12.30;100.00
70304;BME280;57712;48.752;11.348;2023-08-07T07:59:28;97432.31;;;12.36;100.00
70304;BME280;57712;48.752;11.348;2023-08-07T08:01:54;97434.47;;;12.29;100.00
70304;BME280;57712;48.752;11.348;2023-08-07T08:04:22;97438.78;;;12.59;100.00
70304;BME280;57712;48.752;11.348;2023-08-07T08:06:49;97436.09;;;12.42;100.00
70304;BME280;57712;48.752;11.348;2023-08-07T08:09:15;97440.41;;;12.73;100.00
70304;BME280;57712;48.752;11.348;2023-08-07T08:11:42;97445.53;;;12.70;100.00
70304;BME280;57712;48.752;11.348;2023-08-07T08:14:09;97439.75;;;12.52;100.00
70304;BME280;57712;48.752;11.348;2023-08-07T08:16:35;97470.84;;;12.78;100.00
70304;BME280;57712;48.752;11.348;2023-08-07T08:19:02;97443.84;;;12.60;100.00
70304;BME280;57712;48.752;11.348;2023-08-07T08:21:29;97460.00;;;12.58;100.00
70304;BME280;57712;48.752;11.348;2023-08-07T08:23:57;97447.34;;;12.61;100.00
70304;BME280;57712;48.752;11.348;2023-08-07T08:26:24;97450.75;;;12.52;100.00
70304;BME280;57712;48.752;11.348;2023-08-07T08:28:51;97450.81;;;12.49;100.00
70304;BME280;57712;48.752;11.348;2023-08-07T08:31:17;97463.94;;;12.74;100.00
70304;BME280;57712;48.752;11.348;2023-08-07T08:33:44;97463.94;;;12.74;100.00
70304;BME280;57712;48.752;11.348;2023-08-07T08:36:11;97456.44;;;13.03;100.00
70304;BME280;57712;48.752;11.348;2023-08-07T08:38:38;97453.75;;;12.87;100.00
70304;BME280;57712;48.752;11.348;2023-08-07T08:41:07;97469.50;;;13.41;100.00
70304;BME280;57712;48.752;11.348;2023-08-07T08:43:35;97465.34;;;13.49;100.00
70304;BME280;57712;48.752;11.348;2023-08-07T08:46:04;97466.00;;;13.53;100.00
70304;BME280;57712;48.752;11.348;2023-08-07T08:48:35;97465.31;;;13.23;100.00
70304;BME280;57712;48.752;11.348;2023-08-07T08:51:05;97459.91;;;13.33;100.00
70304;BME280;57712;48.752;11.348;2023-08-07T08:53:33;97474.69;;;13.51;100.00
70304;BME280;57712;48.752;11.348;2023-08-07T08:56:01;97475.69;;;13.45;100.00
70304;BME280;57712;48.752;11.348;2023-08-07T08:58:28;97469.84;;;13.43;100.00
70304;BME280;57712;48.752;11.348;2023-08-07T09:00:55;97473.16;;;13.38;100.00
70304;BME280;57712;48.752;11.348;2023-08-07T09:03:23;97471.19;;;13.51;100.00
70304;BME280;57712;48.752;11.348;2023-08-07T09:05:52;97475.69;;;13.45;100.00
70304;BME280;57712;48.752;11.348;2023-08-07T09:08:21;97484.94;;;13.64;100.00
70304;BME280;57712;48.752;11.348;2023-08-07T09:10:49;97494.41;;;13.50;100.00
70304;BME280;57712;48.752;11.348;2023-08-07T09:13:21;97483.19;;;13.44;100.00
70304;BME280;57712;48.752;11.348;2023-08-07T09:15:50;97486.94;;;13.63;100.00
70304;BME280;57712;48.752;11.348;2023-08-07T09:18:17;97486.59;;;13.74;100.00
70304;BME280;57712;48.752;11.348;2023-08-07T09:20:47;97489.16;;;13.81;100.00
70304;BME280;57712;48.752;11.348;2023-08-07T09:23:15;97495.75;;;13.58;100.00
70304;BME280;57712;48.752;11.348;2023-08-07T09:25:43;97500.38;;;13.61;100.00
70304;BME280;57712;48.752;11.348;2023-08-07T09:28:10;97499.16;;;13.75;100.00
70304;BME280;57712;48.752;11.348;2023-08-07T09:30:41;97506.94;;;13.38;100.00
70304;BME280;57712;48.752;11.348;2023-08-07T09:33:10;97507.63;;;13.55;100.00
70304;BME280;57712;48.752;11.348;2023-08-07T09:35:38;97509.38;;;13.49;100.00
70304;BME280;57712;48.752;11.348;2023-08-07T09:38:07;97516.53;;;13.46;100.00
70304;BME280;57712;48.752;11.348;2023-08-07T09:40:33;97511.13;;;13.43;100.00
70304;BME280;57712;48.752;11.348;2023-08-07T09:43:01;97515.22;;;13.51;100.00
70304;BME280;57712;48.752;11.348;2023-08-07T09:45:28;97522.69;;;13.50;100.00
70304;BME280;57712;48.752;11.348;2023-08-07T09:48:01;97520.81;;;13.35;100.00
70304;BME280;57712;48.752;11.348;2023-08-07T09:50:29;97512.13;;;13.36;100.00
70304;BME280;57712;48.752;11.348;2023-08-07T09:52:56;97515.91;;;13.55;100.00
70304;BME280;57712;48.752;11.348;2023-08-07T09:55:25;97523.94;;;13.75;100.00
70304;BME280;57712;48.752;11.348;2023-08-07T09:57:52;97505.09;;;13.73;100.00
70304;BME280;57712;48.752;11.348;2023-08-07T10:00:19;97514.81;;;13.78;100.00
70304;BME280;57712;48.752;11.348;2023-08-07T10:02:50;97518.66;;;13.80;100.00
70304;BME280;57712;48.752;11.348;2023-08-07T10:05:18;97515.69;;;14.00;100.00
70304;BME280;57712;48.752;11.348;2023-08-07T10:07:45;97517.22;;;14.14;100.00
70304;BME280;57712;48.752;11.348;2023-08-07T10:10:14;97515.16;;;14.18;100.00
70304;BME280;57712;48.752;11.348;2023-08-07T10:12:41;97506.81;;;14.56;100.00
70304;BME280;57712;48.752;11.348;2023-08-07T10:15:08;97520.28;;;14.54;100.00
70304;BME280;57712;48.752;11.348;2023-08-07T10:17:35;97523.00;;;14.67;100.00
70304;BME280;57712;48.752;11.348;2023-08-07T10:20:01;97529.00;;;14.53;100.00
70304;BME280;57712;48.752;11.348;2023-08-07T10:22:30;97521.06;;;14.55;100.00
70304;BME280;57712;48.752;11.348;2023-08-07T10:24:59;97528.47;;;14.92;100.00
70304;BME280;57712;48.752;11.348;2023-08-07T10:27:29;97513.00;;;14.95;100.00
70304;BME280;57712;48.752;11.348;2023-08-07T10:29:59;97529.09;;;15.18;100.00
70304;BME280;57712;48.752;11.348;2023-08-07T10:32:30;97516.47;;;15.30;100.00
70304;BME280;57712;48.752;11.348;2023-08-07T10:34:57;97533.09;;;15.17;100.00
70304;BME280;57712;48.752;11.348;2023-08-07T10:37:42;97509.97;;;15.68;100.00
70304;BME280;57712;48.752;11.348;2023-08-07T10:40:10;97521.13;;;14.98;100.00
70304;BME280;57712;48.752;11.348;2023-08-07T10:42:59;97506.13;;;14.99;100.00
70304;BME280;57712;48.752;11.348;2023-08-07T10:45:28;97520.19;;;14.92;100.00
70304;BME280;57712;48.752;11.348;2023-08-07T10:48:02;97520.13;;;15.27;100.00
70304;BME280;57712;48.752;11.348;2023-08-07T10:50:31;97526.63;;;15.11;100.00
70304;BME280;57712;48.752;11.348;2023-08-07T10:53:02;97522.69;;;15.65;100.00
70304;BME280;57712;48.752;11.348;2023-08-07T10:55:45;97526.84;;;15.70;100.00
70304;BME280;57712;48.752;11.348;2023-08-07T10:58:42;97515.66;;;16.04;100.00
70304;BME280;57712;48.752;11.348;2023-08-07T11:01:39;97520.41;;;15.64;100.00
70304;BME280;57712;48.752;11.348;2023-08-07T11:04:09;97512.16;;;15.51;100.00
70304;BME280;57712;48.752;11.348;2023-08-07T11:06:37;97523.84;;;15.33;100.00
70304;BME280;57712;48.752;11.348;2023-08-07T11:09:07;97525.00;;;15.67;100.00
70304;BME280;57712;48.752;11.348;2023-08-07T11:11:39;97521.75;;;15.90;100.00
70304;BME280;57712;48.752;11.348;2023-08-07T11:14:11;97518.66;;;15.88;100.00
70304;BME280;57712;48.752;11.348;2023-08-07T11:16:39;97523.97;;;15.51;100.00
70304;BME280;57712;48.752;11.348;2023-08-07T11:19:07;97520.06;;;15.93;100.00
70304;BME280;57712;48.752;11.348;2023-08-07T11:21:35;97517.31;;;15.18;100.00
70304;BME280;57712;48.752;11.348;2023-08-07T11:24:02;97534.00;;;15.36;100.00
70304;BME280;57712;48.752;11.348;2023-08-07T11:26:30;97517.41;;;15.80;100.00
70304;BME280;57712;48.752;11.348;2023-08-07T11:28:57;97532.03;;;15.90;100.00
70304;BME280;57712;48.752;11.348;2023-08-07T11:31:24;97525.63;;;15.49;100.00
70304;BME280;57712;48.752;11.348;2023-08-07T11:33:52;97529.88;;;15.63;100.00
70304;BME280;57712;48.752;11.348;2023-08-07T11:36:19;97516.63;;;15.79;100.00
70304;BME280;57712;48.752;11.348;2023-08-07T11:38:46;97516.44;;;16.63;100.00
70304;BME280;57712;48.752;11.348;2023-08-07T11:41:16;97519.41;;;16.20;100.00
70304;BME280;57712;48.752;11.348;2023-08-07T11:43:43;97530.91;;;16.18;100.00
70304;BME280;57712;48.752;11.348;2023-08-07T11:46:13;97527.00;;;16.56;100.00
70304;BME280;57712;48.752;11.348;2023-08-07T11:48:41;97514.69;;;16.38;100.00
70304;BME280;57712;48.752;11.348;2023-08-07T11:51:08;97518.00;;;17.19;100.00
70304;BME280;57712;48.752;11.348;2023-08-07T11:53:36;97522.63;;;16.86;100.00
70304;BME280;57712;48.752;11.348;2023-08-07T11:56:06;97530.63;;;17.02;100.00
70304;BME280;57712;48.752;11.348;2023-08-07T11:58:37;97522.16;;;16.96;100.00
70304;BME280;57712;48.752;11.348;2023-08-07T12:01:09;97535.69;;;17.40;100.00
70304;BME280;57712;48.752;11.348;2023-08-07T12:03:38;97537.06;;;17.36;100.00
70304;BME280;57712;48.752;11.348;2023-08-07T12:06:09;97536.28;;;17.53;100.00
70304;BME280;57712;48.752;11.348;2023-08-07T12:08:40;97525.09;;;17.20;100.00
70304;BME280;57712;48.752;11.348;2023-08-07T12:11:09;97537.34;;;17.83;100.00
70304;BME280;57712;48.752;11.348;2023-08-07T12:13:43;97539.72;;;17.12;100.00
70304;BME280;57712;48.752;11.348;2023-08-07T12:16:15;97538.78;;;17.06;100.00
70304;BME280;57712;48.752;11.348;2023-08-07T12:18:47;97541.09;;;17.16;100.00
70304;BME280;57712;48.752;11.348;2023-08-07T12:21:21;97549.69;;;16.91;100.00
70304;BME280;57712;48.752;11.348;2023-08-07T12:23:55;97545.84;;;17.16;100.00
70304;BME280;57712;48.752;11.348;2023-08-07T12:26:22;97540.63;;;17.09;100.00
70304;BME280;57712;48.752;11.348;2023-08-07T12:28:49;97556.63;;;17.41;100.00
70304;BME280;57712;48.752;11.348;2023-08-07T12:31:17;97553.38;;;16.88;100.00
70304;BME280;57712;48.752;11.348;2023-08-07T12:33:44;97547.00;;;16.60;100.00
70304;BME280;57712;48.752;11.348;2023-08-07T12:36:11;97553.38;;;16.79;100.00
70304;BME280;57712;48.752;11.348;2023-08-07T12:38:43;97542.78;;;17.32;100.00
70304;BME280;57712;48.752;11.348;2023-08-07T12:41:10;97541.59;;;16.56;100.00
70304;BME280;57712;48.752;11.348;2023-08-07T12:43:40;97554.00;;;17.28;100.00
70304;BME280;57712;48.752;11.348;2023-08-07T12:46:06;97543.66;;;17.75;100.00
70304;BME280;57712;48.752;11.348;2023-08-07T12:48:36;97555.50;;;17.57;100.00